sensor_id;sensor_type;location;lat;lon;timestamp;P1;durP1;ratioP1;P2;durP2;ratioP2
74523;SDS011;63074;44.696;10.358;2023-08-01T00:01:01;3.03;;;1.73;;
74523;SDS011;63074;44.696;10.358;2023-08-01T00:03:28;2.83;;;1.75;;
74523;SDS011;63074;44.696;10.358;2023-08-01T00:05:54;4.43;;;1.88;;
74523;SDS011;63074;44.696;10.358;2023-08-01T00:10:46;3.75;;;1.67;;
74523;SDS011;63074;44.696;10.358;2023-08-01T00:13:12;4.50;;;1.60;;
74523;SDS011;63074;44.696;10.358;2023-08-01T00:15:38;3.20;;;1.80;;
74523;SDS011;63074;44.696;10.358;2023-08-01T00:18:04;2.90;;;1.70;;
74523;SDS011;63074;44.696;10.358;2023-08-01T00:20:30;2.53;;;1.45;;
74523;SDS011;63074;44.696;10.358;2023-08-01T00:22:56;2.45;;;1.65;;
74523;SDS011;63074;44.696;10.358;2023-08-01T00:25:22;3.92;;;1.70;;
74523;SDS011;63074;44.696;10.358;2023-08-01T00:27:48;3.78;;;1.70;;
74523;SDS011;63074;44.696;10.358;2023-08-01T00:30:16;4.25;;;1.65;;
74523;SDS011;63074;44.696;10.358;2023-08-01T00:32:42;3.40;;;1.17;;
74523;SDS011;63074;44.696;10.358;2023-08-01T00:35:08;2.92;;;1.95;;
74523;SDS011;63074;44.696;10.358;2023-08-01T00:37:34;3.00;;;1.70;;
74523;SDS011;63074;44.696;10.358;2023-08-01T00:40:00;2.85;;;1.40;;
74523;SDS011;63074;44.696;10.358;2023-08-01T00:42:26;2.70;;;1.70;;
74523;SDS011;63074;44.696;10.358;2023-08-01T00:44:52;3.85;;;1.52;;
74523;SDS011;63074;44.696;10.358;2023-08-01T00:47:19;4.45;;;1.60;;
74523;SDS011;63074;44.696;10.358;2023-08-01T00:49:45;4.25;;;1.45;;
74523;SDS011;63074;44.696;10.358;2023-08-01T00:52:11;3.83;;;2.10;;
74523;SDS011;63074;44.696;10.358;2023-08-01T00:54:37;4.07;;;1.70;;
74523;SDS011;63074;44.696;10.358;2023-08-01T00:57:03;2.97;;;1.40;;
74523;SDS011;63074;44.696;10.358;2023-08-01T00:59:30;4.15;;;2.15;;
74523;SDS011;63074;44.696;10.358;2023-08-01T01:01:56;3.67;;;1.80;;
74523;SDS011;63074;44.696;10.358;2023-08-01T01:04:22;4.05;;;1.52;;
74523;SDS011;63074;44.696;10.358;2023-08-01T01:07:00;2.50;;;1.73;;
74523;SDS011;63074;44.696;10.358;2023-08-01T01:09:27;3.80;;;1.98;;
74523;SDS011;63074;44.696;10.358;2023-08-01T01:11:54;3.20;;;1.90;;
74523;SDS011;63074;44.696;10.358;2023-08-01T01:16:46;3.58;;;1.83;;
74523;SDS011;63074;44.696;10.358;2023-08-01T01:19:12;3.55;;;1.65;;
74523;SDS011;63074;44.696;10.358;2023-08-01T01:21:38;4.57;;;1.92;;
74523;SDS011;63074;44.696;10.358;2023-08-01T01:24:05;2.67;;;1.58;;
74523;SDS011;63074;44.696;10.358;2023-08-01T01:26:32;3.50;;;2.05;;
74523;SDS011;63074;44.696;10.358;2023-08-01T01:28:59;6.03;;;1.80;;
74523;SDS011;63074;44.696;10.358;2023-08-01T01:31:25;3.95;;;1.65;;
74523;SDS011;63074;44.696;10.358;2023-08-01T01:33:52;2.95;;;1.77;;
74523;SDS011;63074;44.696;10.358;2023-08-01T01:36:18;4.00;;;1.92;;
74523;SDS011;63074;44.696;10.358;2023-08-01T01:38:44;3.83;;;1.90;;
74523;SDS011;63074;44.696;10.358;2023-08-01T01:41:10;4.15;;;2.00;;
74523;SDS011;63074;44.696;10.358;2023-08-01T01:43:36;3.75;;;2.30;;
74523;SDS011;63074;44.696;10.358;2023-08-01T01:46:06;3.83;;;2.08;;
74523;SDS011;63074;44.696;10.358;2023-08-01T01:48:32;3.42;;;1.58;;
74523;SDS011;63074;44.696;10.358;2023-08-01T01:50:58;2.63;;;1.58;;
74523;SDS011;63074;44.696;10.358;2023-08-01T01:53:24;2.88;;;1.58;;
74523;SDS011;63074;44.696;10.358;2023-08-01T01:55:50;3.58;;;1.58;;
74523;SDS011;63074;44.696;10.358;2023-08-01T01:58:16;2.28;;;1.48;;
74523;SDS011;63074;44.696;10.358;2023-08-01T02:00:42;4.00;;;1.73;;
74523;SDS011;63074;44.696;10.358;2023-08-01T02:03:08;2.75;;;1.70;;
74523;SDS011;63074;44.696;10.358;2023-08-01T02:05:39;3.42;;;1.50;;
74523;SDS011;63074;44.696;10.358;2023-08-01T02:08:06;3.83;;;1.60;;
74523;SDS011;63074;44.696;10.358;2023-08-01T02:10:32;4.13;;;1.40;;
74523;SDS011;63074;44.696;10.358;2023-08-01T02:12:58;3.42;;;1.67;;
74523;SDS011;63074;44.696;10.358;2023-08-01T02:15:24;3.70;;;1.80;;
74523;SDS011;63074;44.696;10.358;2023-08-01T02:17:50;3.92;;;1.60;;
74523;SDS011;63074;44.696;10.358;2023-08-01T02:20:16;3.10;;;1.45;;
74523;SDS011;63074;44.696;10.358;2023-08-01T02:22:43;3.58;;;2.00;;
74523;SDS011;63074;44.696;10.358;2023-08-01T02:25:09;3.85;;;1.60;;
74523;SDS011;63074;44.696;10.358;2023-08-01T02:27:36;3.78;;;2.10;;
74523;SDS011;63074;44.696;10.358;2023-08-01T02:30:02;4.18;;;2.10;;
74523;SDS011;63074;44.696;10.358;2023-08-01T02:32:30;3.63;;;1.85;;
74523;SDS011;63074;44.696;10.358;2023-08-01T02:34:56;6.07;;;2.67;;
74523;SDS011;63074;44.696;10.358;2023-08-01T02:37:22;3.28;;;2.00;;
74523;SDS011;63074;44.696;10.358;2023-08-01T02:39:48;4.78;;;2.35;;
74523;SDS011;63074;44.696;10.358;2023-08-01T02:42:14;4.88;;;2.50;;
74523;SDS011;63074;44.696;10.358;2023-08-01T02:44:41;5.00;;;2.13;;
74523;SDS011;63074;44.696;10.358;2023-08-01T02:47:07;6.70;;;1.92;;
74523;SDS011;63074;44.696;10.358;2023-08-01T02:49:33;4.32;;;2.25;;
74523;SDS011;63074;44.696;10.358;2023-08-01T02:51:59;3.88;;;2.10;;
74523;SDS011;63074;44.696;10.358;2023-08-01T02:54:25;4.20;;;1.70;;
74523;SDS011;63074;44.696;10.358;2023-08-01T02:56:51;3.67;;;1.80;;
74523;SDS011;63074;44.696;10.358;2023-08-01T02:59:17;3.22;;;1.80;;
74523;SDS011;63074;44.696;10.358;2023-08-01T03:01:43;6.07;;;2.15;;
74523;SDS011;63074;44.696;10.358;2023-08-01T03:04:10;5.60;;;1.95;;
74523;SDS011;63074;44.696;10.358;2023-08-01T03:06:39;6.93;;;1.65;;
74523;SDS011;63074;44.696;10.358;2023-08-01T03:09:05;4.43;;;1.70;;
74523;SDS011;63074;44.696;10.358;2023-08-01T03:11:33;2.80;;;1.67;;
74523;SDS011;63074;44.696;10.358;2023-08-01T03:13:59;3.08;;;1.58;;
74523;SDS011;63074;44.696;10.358;2023-08-01T03:16:25;3.30;;;1.60;;
74523;SDS011;63074;44.696;10.358;2023-08-01T03:18:51;6.03;;;1.70;;
74523;SDS011;63074;44.696;10.358;2023-08-01T03:21:17;5.20;;;1.85;;
74523;SDS011;63074;44.696;10.358;2023-08-01T03:23:43;2.42;;;1.67;;
74523;SDS011;63074;44.696;10.358;2023-08-01T03:26:09;3.55;;;1.73;;
74523;SDS011;63074;44.696;10.358;2023-08-01T03:28:35;4.65;;;2.20;;
74523;SDS011;63074;44.696;10.358;2023-08-01T03:31:01;6.30;;;1.98;;
74523;SDS011;63074;44.696;10.358;2023-08-01T03:33:28;3.78;;;1.48;;
74523;SDS011;63074;44.696;10.358;2023-08-01T03:35:54;2.70;;;1.33;;
74523;SDS011;63074;44.696;10.358;2023-08-01T03:40:46;3.42;;;1.30;;
74523;SDS011;63074;44.696;10.358;2023-08-01T03:43:12;3.55;;;1.77;;
74523;SDS011;63074;44.696;10.358;2023-08-01T03:45:39;3.60;;;1.50;;
74523;SDS011;63074;44.696;10.358;2023-08-01T03:48:05;4.38;;;1.83;;
74523;SDS011;63074;44.696;10.358;2023-08-01T03:50:31;3.20;;;1.50;;
74523;SDS011;63074;44.696;10.358;2023-08-01T03:52:57;3.20;;;1.30;;
74523;SDS011;63074;44.696;10.358;2023-08-01T03:55:23;2.80;;;1.27;;
74523;SDS011;63074;44.696;10.358;2023-08-01T03:57:49;1.95;;;1.35;;
74523;SDS011;63074;44.696;10.358;2023-08-01T04:00:15;3.17;;;1.48;;
74523;SDS011;63074;44.696;10.358;2023-08-01T04:02:43;2.95;;;1.77;;
74523;SDS011;63074;44.696;10.358;2023-08-01T04:05:09;5.10;;;1.40;;
74523;SDS011;63074;44.696;10.358;2023-08-01T04:07:39;2.40;;;1.30;;
74523;SDS011;63074;44.696;10.358;2023-08-01T04:10:05;2.33;;;1.08;;
74523;SDS011;63074;44.696;10.358;2023-08-01T04:12:32;5.60;;;1.88;;
74523;SDS011;63074;44.696;10.358;2023-08-01T04:14:58;5.53;;;1.50;;
74523;SDS011;63074;44.696;10.358;2023-08-01T04:17:24;2.47;;;1.60;;
74523;SDS011;63074;44.696;10.358;2023-08-01T04:19:51;3.65;;;1.80;;
74523;SDS011;63074;44.696;10.358;2023-08-01T04:22:17;2.45;;;1.23;;
74523;SDS011;63074;44.696;10.358;2023-08-01T04:24:43;3.13;;;1.50;;
74523;SDS011;63074;44.696;10.358;2023-08-01T04:27:09;3.10;;;1.10;;
74523;SDS011;63074;44.696;10.358;2023-08-01T04:29:35;2.70;;;0.95;;
74523;SDS011;63074;44.696;10.358;2023-08-01T04:32:01;4.45;;;1.20;;
74523;SDS011;63074;44.696;10.358;2023-08-01T04:34:27;2.33;;;1.00;;
74523;SDS011;63074;44.696;10.358;2023-08-01T04:36:53;2.50;;;0.88;;
74523;SDS011;63074;44.696;10.358;2023-08-01T04:41:46;4.43;;;1.38;;
74523;SDS011;63074;44.696;10.358;2023-08-01T04:44:12;2.25;;;1.17;;
74523;SDS011;63074;44.696;10.358;2023-08-01T04:46:38;3.25;;;1.40;;
74523;SDS011;63074;44.696;10.358;2023-08-01T04:49:04;3.05;;;1.65;;
74523;SDS011;63074;44.696;10.358;2023-08-01T04:51:30;3.13;;;1.35;;
74523;SDS011;63074;44.696;10.358;2023-08-01T04:53:56;3.17;;;1.02;;
74523;SDS011;63074;44.696;10.358;2023-08-01T04:56:22;4.57;;;1.85;;
74523;SDS011;63074;44.696;10.358;2023-08-01T04:58:48;2.85;;;1.42;;
74523;SDS011;63074;44.696;10.358;2023-08-01T05:01:14;2.65;;;1.13;;
74523;SDS011;63074;44.696;10.358;2023-08-01T05:03:40;3.35;;;1.55;;
74523;SDS011;63074;44.696;10.358;2023-08-01T05:06:06;4.00;;;1.52;;
74523;SDS011;63074;44.696;10.358;2023-08-01T05:08:34;4.55;;;1.48;;
74523;SDS011;63074;44.696;10.358;2023-08-01T05:11:02;3.65;;;1.33;;
74523;SDS011;63074;44.696;10.358;2023-08-01T05:13:28;3.55;;;1.30;;
74523;SDS011;63074;44.696;10.358;2023-08-01T05:15:54;3.67;;;1.40;;
74523;SDS011;63074;44.696;10.358;2023-08-01T05:20:46;4.85;;;1.23;;
74523;SDS011;63074;44.696;10.358;2023-08-01T05:23:12;3.35;;;1.13;;
74523;SDS011;63074;44.696;10.358;2023-08-01T05:25:38;3.13;;;1.85;;
74523;SDS011;63074;44.696;10.358;2023-08-01T05:28:04;3.55;;;1.92;;
74523;SDS011;63074;44.696;10.358;2023-08-01T05:30:30;4.00;;;1.90;;
74523;SDS011;63074;44.696;10.358;2023-08-01T05:32:56;3.13;;;1.52;;
74523;SDS011;63074;44.696;10.358;2023-08-01T05:35:22;5.93;;;1.70;;
74523;SDS011;63074;44.696;10.358;2023-08-01T05:37:48;3.67;;;1.48;;
74523;SDS011;63074;44.696;10.358;2023-08-01T05:40:15;5.13;;;1.77;;
74523;SDS011;63074;44.696;10.358;2023-08-01T05:42:41;4.88;;;1.55;;
74523;SDS011;63074;44.696;10.358;2023-08-01T05:45:07;5.35;;;1.85;;
74523;SDS011;63074;44.696;10.358;2023-08-01T05:47:33;4.10;;;1.80;;
74523;SDS011;63074;44.696;10.358;2023-08-01T05:50:01;5.28;;;2.25;;
74523;SDS011;63074;44.696;10.358;2023-08-01T05:52:27;4.97;;;1.88;;
74523;SDS011;63074;44.696;10.358;2023-08-01T05:54:53;5.18;;;1.77;;
74523;SDS011;63074;44.696;10.358;2023-08-01T05:57:19;6.22;;;2.53;;
74523;SDS011;63074;44.696;10.358;2023-08-01T05:59:45;4.43;;;2.10;;
74523;SDS011;63074;44.696;10.358;2023-08-01T06:02:11;5.32;;;2.75;;
74523;SDS011;63074;44.696;10.358;2023-08-01T06:04:37;5.78;;;2.05;;
74523;SDS011;63074;44.696;10.358;2023-08-01T06:07:04;8.98;;;1.98;;
74523;SDS011;63074;44.696;10.358;2023-08-01T06:09:30;6.53;;;1.70;;
74523;SDS011;63074;44.696;10.358;2023-08-01T06:11:56;7.47;;;2.03;;
74523;SDS011;63074;44.696;10.358;2023-08-01T06:14:22;8.23;;;2.30;;
74523;SDS011;63074;44.696;10.358;2023-08-01T06:16:48;3.55;;;1.70;;
74523;SDS011;63074;44.696;10.358;2023-08-01T06:19:14;5.45;;;2.40;;
74523;SDS011;63074;44.696;10.358;2023-08-01T06:21:40;4.93;;;1.80;;
74523;SDS011;63074;44.696;10.358;2023-08-01T06:24:06;6.32;;;2.30;;
74523;SDS011;63074;44.696;10.358;2023-08-01T06:26:33;11.27;;;2.30;;
74523;SDS011;63074;44.696;10.358;2023-08-01T06:28:59;6.57;;;1.95;;
74523;SDS011;63074;44.696;10.358;2023-08-01T06:31:25;5.78;;;1.92;;
74523;SDS011;63074;44.696;10.358;2023-08-01T06:33:51;4.55;;;1.95;;
74523;SDS011;63074;44.696;10.358;2023-08-01T06:36:18;4.53;;;1.90;;
74523;SDS011;63074;44.696;10.358;2023-08-01T06:38:44;4.70;;;1.90;;
74523;SDS011;63074;44.696;10.358;2023-08-01T06:41:11;5.75;;;2.20;;
74523;SDS011;63074;44.696;10.358;2023-08-01T06:43:37;6.20;;;1.70;;
74523;SDS011;63074;44.696;10.358;2023-08-01T06:46:03;3.30;;;1.80;;
74523;SDS011;63074;44.696;10.358;2023-08-01T06:48:30;3.70;;;2.15;;
74523;SDS011;63074;44.696;10.358;2023-08-01T06:50:56;6.05;;;2.22;;
74523;SDS011;63074;44.696;10.358;2023-08-01T06:53:22;4.68;;;1.75;;
74523;SDS011;63074;44.696;10.358;2023-08-01T06:55:49;3.22;;;1.85;;
74523;SDS011;63074;44.696;10.358;2023-08-01T06:58:15;4.15;;;2.78;;
74523;SDS011;63074;44.696;10.358;2023-08-01T07:00:41;4.60;;;2.03;;
74523;SDS011;63074;44.696;10.358;2023-08-01T07:03:07;3.75;;;1.95;;
74523;SDS011;63074;44.696;10.358;2023-08-01T07:05:33;3.80;;;2.28;;
74523;SDS011;63074;44.696;10.358;2023-08-01T07:07:59;4.18;;;1.95;;
74523;SDS011;63074;44.696;10.358;2023-08-01T07:10:25;4.45;;;2.10;;
74523;SDS011;63074;44.696;10.358;2023-08-01T07:12:51;5.47;;;2.45;;
74523;SDS011;63074;44.696;10.358;2023-08-01T07:15:17;3.78;;;2.03;;
74523;SDS011;63074;44.696;10.358;2023-08-01T07:17:43;3.40;;;1.75;;
74523;SDS011;63074;44.696;10.358;2023-08-01T07:20:09;5.18;;;2.05;;
74523;SDS011;63074;44.696;10.358;2023-08-01T07:22:35;4.80;;;1.85;;
74523;SDS011;63074;44.696;10.358;2023-08-01T07:25:01;3.20;;;1.63;;
74523;SDS011;63074;44.696;10.358;2023-08-01T07:27:27;5.93;;;1.98;;
74523;SDS011;63074;44.696;10.358;2023-08-01T07:29:54;4.43;;;1.77;;
74523;SDS011;63074;44.696;10.358;2023-08-01T07:32:20;4.50;;;1.52;;
74523;SDS011;63074;44.696;10.358;2023-08-01T07:34:45;3.70;;;1.88;;
74523;SDS011;63074;44.696;10.358;2023-08-01T07:37:12;3.13;;;1.65;;
74523;SDS011;63074;44.696;10.358;2023-08-01T07:39:38;3.40;;;2.10;;
74523;SDS011;63074;44.696;10.358;2023-08-01T07:42:04;6.82;;;2.35;;
74523;SDS011;63074;44.696;10.358;2023-08-01T07:44:30;3.83;;;1.77;;
74523;SDS011;63074;44.696;10.358;2023-08-01T07:46:56;4.85;;;2.28;;
74523;SDS011;63074;44.696;10.358;2023-08-01T07:49:23;5.60;;;1.92;;
74523;SDS011;63074;44.696;10.358;2023-08-01T07:51:49;5.30;;;2.65;;
74523;SDS011;63074;44.696;10.358;2023-08-01T07:54:16;4.75;;;1.85;;
74523;SDS011;63074;44.696;10.358;2023-08-01T07:56:42;4.30;;;2.45;;
74523;SDS011;63074;44.696;10.358;2023-08-01T07:59:09;3.58;;;2.33;;
74523;SDS011;63074;44.696;10.358;2023-08-01T08:01:35;4.55;;;2.58;;
74523;SDS011;63074;44.696;10.358;2023-08-01T08:04:01;5.10;;;2.00;;
74523;SDS011;63074;44.696;10.358;2023-08-01T08:06:27;4.03;;;2.13;;
74523;SDS011;63074;44.696;10.358;2023-08-01T08:08:53;5.97;;;2.38;;
74523;SDS011;63074;44.696;10.358;2023-08-01T08:11:19;4.00;;;2.45;;
74523;SDS011;63074;44.696;10.358;2023-08-01T08:13:45;5.47;;;2.10;;
74523;SDS011;63074;44.696;10.358;2023-08-01T08:16:11;4.32;;;2.03;;
74523;SDS011;63074;44.696;10.358;2023-08-01T08:18:37;4.22;;;2.00;;
74523;SDS011;63074;44.696;10.358;2023-08-01T08:21:04;6.38;;;2.88;;
74523;SDS011;63074;44.696;10.358;2023-08-01T08:23:30;5.95;;;2.97;;
74523;SDS011;63074;44.696;10.358;2023-08-01T08:25:56;5.43;;;2.83;;
74523;SDS011;63074;44.696;10.358;2023-08-01T08:30:48;9.73;;;2.88;;
74523;SDS011;63074;44.696;10.358;2023-08-01T08:33:20;4.85;;;2.88;;
74523;SDS011;63074;44.696;10.358;2023-08-01T08:35:46;5.13;;;3.08;;
74523;SDS011;63074;44.696;10.358;2023-08-01T08:38:12;5.68;;;2.70;;
74523;SDS011;63074;44.696;10.358;2023-08-01T08:40:40;4.38;;;2.72;;
74523;SDS011;63074;44.696;10.358;2023-08-01T08:43:06;8.13;;;3.28;;
74523;SDS011;63074;44.696;10.358;2023-08-01T08:45:34;4.80;;;2.78;;
74523;SDS011;63074;44.696;10.358;2023-08-01T08:48:01;4.35;;;2.88;;
74523;SDS011;63074;44.696;10.358;2023-08-01T08:50:29;3.83;;;2.53;;
74523;SDS011;63074;44.696;10.358;2023-08-01T08:52:56;4.63;;;2.30;;
74523;SDS011;63074;44.696;10.358;2023-08-01T08:57:49;6.25;;;3.00;;
74523;SDS011;63074;44.696;10.358;2023-08-01T09:00:17;6.28;;;2.20;;
74523;SDS011;63074;44.696;10.358;2023-08-01T09:02:44;4.93;;;2.42;;
74523;SDS011;63074;44.696;10.358;2023-08-01T09:05:10;4.47;;;2.25;;
74523;SDS011;63074;44.696;10.358;2023-08-01T09:07:39;4.80;;;2.75;;
74523;SDS011;63074;44.696;10.358;2023-08-01T09:10:07;4.38;;;2.45;;
74523;SDS011;63074;44.696;10.358;2023-08-01T09:12:34;4.38;;;2.67;;
74523;SDS011;63074;44.696;10.358;2023-08-01T09:15:00;5.25;;;2.65;;
74523;SDS011;63074;44.696;10.358;2023-08-01T09:17:27;4.28;;;2.40;;
74523;SDS011;63074;44.696;10.358;2023-08-01T09:20:05;5.63;;;2.78;;
74523;SDS011;63074;44.696;10.358;2023-08-01T09:22:46;5.28;;;2.55;;
74523;SDS011;63074;44.696;10.358;2023-08-01T09:25:13;3.90;;;2.30;;
74523;SDS011;63074;44.696;10.358;2023-08-01T09:27:39;4.47;;;2.00;;
74523;SDS011;63074;44.696;10.358;2023-08-01T09:30:09;5.07;;;2.30;;
74523;SDS011;63074;44.696;10.358;2023-08-01T09:32:36;4.40;;;2.75;;
74523;SDS011;63074;44.696;10.358;2023-08-01T09:35:03;6.00;;;2.40;;
74523;SDS011;63074;44.696;10.358;2023-08-01T09:37:50;4.07;;;2.40;;
74523;SDS011;63074;44.696;10.358;2023-08-01T09:40:15;4.75;;;2.30;;
74523;SDS011;63074;44.696;10.358;2023-08-01T09:42:42;4.95;;;2.70;;
74523;SDS011;63074;44.696;10.358;2023-08-01T09:45:12;4.75;;;2.63;;
74523;SDS011;63074;44.696;10.358;2023-08-01T09:47:42;8.63;;;2.80;;
74523;SDS011;63074;44.696;10.358;2023-08-01T09:50:11;5.18;;;2.45;;
74523;SDS011;63074;44.696;10.358;2023-08-01T09:52:38;4.68;;;2.35;;
74523;SDS011;63074;44.696;10.358;2023-08-01T09:55:04;4.55;;;2.90;;
74523;SDS011;63074;44.696;10.358;2023-08-01T09:57:31;6.18;;;2.75;;
74523;SDS011;63074;44.696;10.358;2023-08-01T09:59:57;3.67;;;2.40;;
74523;SDS011;63074;44.696;10.358;2023-08-01T10:02:25;4.25;;;2.65;;
74523;SDS011;63074;44.696;10.358;2023-08-01T10:04:56;4.28;;;2.60;;
74523;SDS011;63074;44.696;10.358;2023-08-01T10:07:23;6.10;;;2.67;;
74523;SDS011;63074;44.696;10.358;2023-08-01T10:09:50;5.13;;;2.72;;
74523;SDS011;63074;44.696;10.358;2023-08-01T10:12:17;4.53;;;2.53;;
74523;SDS011;63074;44.696;10.358;2023-08-01T10:14:43;4.43;;;2.10;;
74523;SDS011;63074;44.696;10.358;2023-08-01T10:17:10;5.25;;;2.60;;
74523;SDS011;63074;44.696;10.358;2023-08-01T10:19:37;4.85;;;2.55;;
74523;SDS011;63074;44.696;10.358;2023-08-01T10:22:04;4.82;;;2.80;;
74523;SDS011;63074;44.696;10.358;2023-08-01T10:24:30;5.85;;;2.85;;
74523;SDS011;63074;44.696;10.358;2023-08-01T10:29:39;4.50;;;2.45;;
74523;SDS011;63074;44.696;10.358;2023-08-01T10:32:06;6.72;;;2.85;;
74523;SDS011;63074;44.696;10.358;2023-08-01T10:34:38;5.75;;;2.67;;
74523;SDS011;63074;44.696;10.358;2023-08-01T10:37:04;6.18;;;3.05;;
74523;SDS011;63074;44.696;10.358;2023-08-01T10:46:52;5.32;;;3.03;;
74523;SDS011;63074;44.696;10.358;2023-08-01T10:49:45;5.05;;;2.83;;
74523;SDS011;63074;44.696;10.358;2023-08-01T10:52:46;5.35;;;2.80;;
74523;SDS011;63074;44.696;10.358;2023-08-01T10:55:17;4.25;;;2.33;;
74523;SDS011;63074;44.696;10.358;2023-08-01T10:57:47;6.68;;;2.67;;
74523;SDS011;63074;44.696;10.358;2023-08-01T11:00:15;5.82;;;2.97;;
74523;SDS011;63074;44.696;10.358;2023-08-01T11:02:49;9.43;;;2.83;;
74523;SDS011;63074;44.696;10.358;2023-08-01T11:05:19;7.35;;;2.78;;
74523;SDS011;63074;44.696;10.358;2023-08-01T11:07:55;4.05;;;2.30;;
74523;SDS011;63074;44.696;10.358;2023-08-01T11:12:47;5.10;;;2.63;;
74523;SDS011;63074;44.696;10.358;2023-08-01T11:15:14;6.20;;;2.65;;
74523;SDS011;63074;44.696;10.358;2023-08-01T11:20:13;6.03;;;2.83;;
74523;SDS011;63074;44.696;10.358;2023-08-01T11:22:49;6.25;;;3.10;;
74523;SDS011;63074;44.696;10.358;2023-08-01T11:25:16;10.32;;;3.55;;
74523;SDS011;63074;44.696;10.358;2023-08-01T11:27:42;5.90;;;3.05;;
74523;SDS011;63074;44.696;10.358;2023-08-01T11:30:09;6.68;;;2.28;;
74523;SDS011;63074;44.696;10.358;2023-08-01T11:32:36;6.97;;;2.72;;
74523;SDS011;63074;44.696;10.358;2023-08-01T11:35:02;4.45;;;2.40;;
74523;SDS011;63074;44.696;10.358;2023-08-01T11:37:35;5.90;;;2.83;;
74523;SDS011;63074;44.696;10.358;2023-08-01T11:40:04;4.97;;;2.72;;
74523;SDS011;63074;44.696;10.358;2023-08-01T11:42:37;5.03;;;2.83;;
74523;SDS011;63074;44.696;10.358;2023-08-01T11:45:10;5.85;;;3.25;;
74523;SDS011;63074;44.696;10.358;2023-08-01T11:47:47;5.70;;;2.70;;
74523;SDS011;63074;44.696;10.358;2023-08-01T11:52:47;4.35;;;3.03;;
74523;SDS011;63074;44.696;10.358;2023-08-01T11:57:55;6.47;;;3.10;;
74523;SDS011;63074;44.696;10.358;2023-08-01T12:03:10;4.45;;;2.88;;
74523;SDS011;63074;44.696;10.358;2023-08-01T12:05:41;5.75;;;2.88;;
74523;SDS011;63074;44.696;10.358;2023-08-01T12:08:14;5.53;;;2.58;;
74523;SDS011;63074;44.696;10.358;2023-08-01T12:10:43;5.25;;;3.03;;
74523;SDS011;63074;44.696;10.358;2023-08-01T12:13:20;5.90;;;3.15;;
74523;SDS011;63074;44.696;10.358;2023-08-01T12:18:19;5.95;;;2.95;;
74523;SDS011;63074;44.696;10.358;2023-08-01T12:20:45;7.20;;;2.95;;
74523;SDS011;63074;44.696;10.358;2023-08-01T12:25:12;6.00;;;2.72;;
74523;SDS011;63074;44.696;10.358;2023-08-01T12:27:38;6.25;;;2.38;;
74523;SDS011;63074;44.696;10.358;2023-08-01T12:30:04;4.55;;;2.33;;
74523;SDS011;63074;44.696;10.358;2023-08-01T12:34:57;4.93;;;2.20;;
74523;SDS011;63074;44.696;10.358;2023-08-01T12:37:23;6.57;;;2.45;;
74523;SDS011;63074;44.696;10.358;2023-08-01T12:39:50;4.53;;;2.42;;
74523;SDS011;63074;44.696;10.358;2023-08-01T12:42:18;6.57;;;2.38;;
74523;SDS011;63074;44.696;10.358;2023-08-01T12:44:44;5.70;;;2.63;;
74523;SDS011;63074;44.696;10.358;2023-08-01T12:47:10;5.35;;;1.90;;
74523;SDS011;63074;44.696;10.358;2023-08-01T12:49:36;4.55;;;2.53;;
74523;SDS011;63074;44.696;10.358;2023-08-01T12:52:03;3.53;;;2.15;;
74523;SDS011;63074;44.696;10.358;2023-08-01T12:54:29;6.57;;;3.20;;
74523;SDS011;63074;44.696;10.358;2023-08-01T12:56:55;5.70;;;2.35;;
74523;SDS011;63074;44.696;10.358;2023-08-01T12:59:21;5.53;;;2.42;;
74523;SDS011;63074;44.696;10.358;2023-08-01T13:01:48;6.07;;;2.67;;
74523;SDS011;63074;44.696;10.358;2023-08-01T13:04:14;7.22;;;3.13;;
74523;SDS011;63074;44.696;10.358;2023-08-01T13:06:40;6.28;;;2.47;;
74523;SDS011;63074;44.696;10.358;2023-08-01T13:09:06;9.85;;;3.60;;
74523;SDS011;63074;44.696;10.358;2023-08-01T13:13:58;6.97;;;2.65;;
74523;SDS011;63074;44.696;10.358;2023-08-01T13:16:24;7.30;;;3.42;;
74523;SDS011;63074;44.696;10.358;2023-08-01T13:21:56;7.20;;;2.65;;
74523;SDS011;63074;44.696;10.358;2023-08-01T13:24:22;6.70;;;3.03;;
74523;SDS011;63074;44.696;10.358;2023-08-01T13:26:48;7.30;;;2.60;;
74523;SDS011;63074;44.696;10.358;2023-08-01T13:29:14;6.00;;;2.55;;
74523;SDS011;63074;44.696;10.358;2023-08-01T13:31:40;5.43;;;2.40;;
74523;SDS011;63074;44.696;10.358;2023-08-01T13:34:07;4.53;;;2.08;;
74523;SDS011;63074;44.696;10.358;2023-08-01T13:39:56;6.88;;;2.65;;
74523;SDS011;63074;44.696;10.358;2023-08-01T13:42:23;6.22;;;2.70;;
74523;SDS011;63074;44.696;10.358;2023-08-01T13:44:49;5.78;;;2.78;;
74523;SDS011;63074;44.696;10.358;2023-08-01T13:47:15;4.50;;;2.30;;
74523;SDS011;63074;44.696;10.358;2023-08-01T13:49:42;6.40;;;2.35;;
74523;SDS011;63074;44.696;10.358;2023-08-01T13:52:08;6.95;;;2.63;;
74523;SDS011;63074;44.696;10.358;2023-08-01T13:54:34;4.93;;;2.72;;
74523;SDS011;63074;44.696;10.358;2023-08-01T13:57:00;5.35;;;2.45;;
74523;SDS011;63074;44.696;10.358;2023-08-01T13:59:27;4.13;;;2.47;;
74523;SDS011;63074;44.696;10.358;2023-08-01T14:01:53;6.97;;;2.35;;
74523;SDS011;63074;44.696;10.358;2023-08-01T14:04:20;6.75;;;2.53;;
74523;SDS011;63074;44.696;10.358;2023-08-01T14:06:46;4.65;;;2.22;;
74523;SDS011;63074;44.696;10.358;2023-08-01T14:09:12;5.82;;;2.35;;
74523;SDS011;63074;44.696;10.358;2023-08-01T14:11:39;7.45;;;2.80;;
74523;SDS011;63074;44.696;10.358;2023-08-01T14:14:05;5.07;;;2.38;;
74523;SDS011;63074;44.696;10.358;2023-08-01T14:19:00;6.03;;;2.58;;
74523;SDS011;63074;44.696;10.358;2023-08-01T14:21:29;5.30;;;2.38;;
74523;SDS011;63074;44.696;10.358;2023-08-01T14:23:55;4.28;;;2.28;;
74523;SDS011;63074;44.696;10.358;2023-08-01T14:26:21;5.05;;;2.38;;
74523;SDS011;63074;44.696;10.358;2023-08-01T14:28:47;5.38;;;2.10;;
74523;SDS011;63074;44.696;10.358;2023-08-01T14:31:15;4.85;;;2.33;;
74523;SDS011;63074;44.696;10.358;2023-08-01T14:33:41;5.13;;;2.50;;
74523;SDS011;63074;44.696;10.358;2023-08-01T14:36:08;4.97;;;2.58;;
74523;SDS011;63074;44.696;10.358;2023-08-01T14:38:37;5.18;;;2.50;;
74523;SDS011;63074;44.696;10.358;2023-08-01T14:41:06;4.78;;;2.28;;
74523;SDS011;63074;44.696;10.358;2023-08-01T14:45:59;6.28;;;2.63;;
74523;SDS011;63074;44.696;10.358;2023-08-01T14:48:26;5.72;;;2.20;;
74523;SDS011;63074;44.696;10.358;2023-08-01T14:50:52;5.60;;;2.45;;
74523;SDS011;63074;44.696;10.358;2023-08-01T14:53:18;5.70;;;2.65;;
74523;SDS011;63074;44.696;10.358;2023-08-01T14:55:45;5.57;;;3.35;;
74523;SDS011;63074;44.696;10.358;2023-08-01T14:58:11;4.50;;;2.60;;
74523;SDS011;63074;44.696;10.358;2023-08-01T15:00:37;6.18;;;2.90;;
74523;SDS011;63074;44.696;10.358;2023-08-01T15:03:03;4.95;;;2.70;;
74523;SDS011;63074;44.696;10.358;2023-08-01T15:05:29;4.97;;;2.50;;
74523;SDS011;63074;44.696;10.358;2023-08-01T15:07:56;7.22;;;2.90;;
74523;SDS011;63074;44.696;10.358;2023-08-01T15:10:22;6.75;;;2.72;;
74523;SDS011;63074;44.696;10.358;2023-08-01T15:12:48;5.38;;;2.78;;
74523;SDS011;63074;44.696;10.358;2023-08-01T15:15:14;6.03;;;2.75;;
74523;SDS011;63074;44.696;10.358;2023-08-01T15:17:40;5.45;;;2.97;;
74523;SDS011;63074;44.696;10.358;2023-08-01T15:20:07;4.93;;;2.42;;
74523;SDS011;63074;44.696;10.358;2023-08-01T15:22:34;4.85;;;3.08;;
74523;SDS011;63074;44.696;10.358;2023-08-01T15:25:00;6.30;;;2.58;;
74523;SDS011;63074;44.696;10.358;2023-08-01T15:27:27;5.72;;;2.88;;
74523;SDS011;63074;44.696;10.358;2023-08-01T15:29:53;6.43;;;2.65;;
74523;SDS011;63074;44.696;10.358;2023-08-01T15:32:19;4.13;;;2.22;;